SUR6183 SCEL-SKRG
Flight info
| Callsign | SUR6183 |
|---|---|
| Flight time | 5h 40m |
| Altitude | 32000 |
| Route | DONTI5B DONTI UQ802 PUNSO UV200 DOVRI UQ802 SIRAM UV200 ARI/N0476F340 UL300 IQT/N0470F360 DCT 02S074W DCT PLG DCT NIRBU/N0472F350 DCT OREGA DCT DAGUR DCT NIRSO NIRSO3C |
| Aircraft | B738/M-SDE2E3FGHIRWXY/LB1 |
Departure
| Time | 2026-04-20 13:02 |
|---|---|
| Airport | Comodoro Arturo Merino Benítez International Airport (SCEL) |
Arrival
| Time | 2026-04-20 18:43 |
|---|---|
| Airport | Jose Maria Córdova International Airport (SKRG) |
| Time | Latitude | Longitude | Altitude | Speed | Heading |
|---|---|---|---|---|---|
| 2026-04-20 12:23 | -33.39872 | -70.78957 | 1587 ft | 0 kts | 192° |
| 2026-04-20 12:49 | -33.39860 | -70.78954 | 1586 ft | 2 kts | 192° |
| 2026-04-20 12:49 | -33.39845 | -70.78951 | 1586 ft | 2 kts | 192° |
| 2026-04-20 12:50 | -33.39835 | -70.78948 | 1587 ft | 0 kts | 192° |
| 2026-04-20 12:50 | -33.39821 | -70.78947 | 1587 ft | 2 kts | 164° |
| 2026-04-20 12:50 | -33.39807 | -70.78955 | 1587 ft | 2 kts | 138° |
| 2026-04-20 12:50 | -33.39798 | -70.78970 | 1587 ft | 2 kts | 111° |
| 2026-04-20 12:51 | -33.39796 | -70.78982 | 1587 ft | 0 kts | 90° |
| 2026-04-20 12:51 | -33.39796 | -70.78991 | 1586 ft | 0 kts | 87° |
| 2026-04-20 12:51 | -33.39796 | -70.78992 | 1586 ft | 0 kts | 87° |
| 2026-04-20 12:54 | -33.39795 | -70.78960 | 1587 ft | 9 kts | 87° |
| 2026-04-20 12:54 | -33.39776 | -70.78879 | 1587 ft | 10 kts | 33° |
| 2026-04-20 12:54 | -33.39700 | -70.78877 | 1587 ft | 11 kts | 356° |
| 2026-04-20 12:54 | -33.39608 | -70.78883 | 1587 ft | 14 kts | 358° |
| 2026-04-20 12:55 | -33.39496 | -70.78888 | 1586 ft | 17 kts | 358° |
| 2026-04-20 12:55 | -33.39373 | -70.78895 | 1586 ft | 17 kts | 357° |
| 2026-04-20 12:55 | -33.39251 | -70.78902 | 1585 ft | 17 kts | 356° |
| 2026-04-20 12:55 | -33.39128 | -70.78910 | 1585 ft | 17 kts | 357° |
| 2026-04-20 12:56 | -33.38998 | -70.78917 | 1584 ft | 19 kts | 358° |
| 2026-04-20 12:56 | -33.38855 | -70.78923 | 1583 ft | 21 kts | 356° |
| 2026-04-20 12:56 | -33.38705 | -70.78934 | 1581 ft | 21 kts | 358° |
| 2026-04-20 12:56 | -33.38557 | -70.78939 | 1580 ft | 20 kts | 357° |
| 2026-04-20 12:57 | -33.38417 | -70.78949 | 1579 ft | 20 kts | 356° |
| 2026-04-20 12:57 | -33.38312 | -70.78872 | 1578 ft | 18 kts | 46° |
| 2026-04-20 12:57 | -33.38200 | -70.78853 | 1578 ft | 16 kts | 356° |
| 2026-04-20 12:57 | -33.38080 | -70.78859 | 1577 ft | 18 kts | 358° |
| 2026-04-20 12:58 | -33.37938 | -70.78867 | 1576 ft | 22 kts | 356° |
| 2026-04-20 12:58 | -33.37780 | -70.78876 | 1575 ft | 22 kts | 358° |
| 2026-04-20 12:58 | -33.37727 | -70.78878 | 1575 ft | 0 kts | 358° |
| 2026-04-20 12:59 | -33.37683 | -70.78879 | 1575 ft | 10 kts | 358° |
| 2026-04-20 12:59 | -33.37625 | -70.78837 | 1575 ft | 10 kts | 82° |
| 2026-04-20 13:00 | -33.37623 | -70.78759 | 1575 ft | 8 kts | 87° |
| 2026-04-20 13:00 | -33.37620 | -70.78696 | 1575 ft | 6 kts | 87° |
| 2026-04-20 13:00 | -33.37638 | -70.78670 | 1575 ft | 3 kts | 178° |
| 2026-04-20 13:00 | -33.37639 | -70.78670 | 1575 ft | 0 kts | 178° |
| 2026-04-20 13:01 | -33.37745 | -70.78665 | 1576 ft | 42 kts | 179° |
| 2026-04-20 13:01 | -33.38225 | -70.78640 | 1578 ft | 96 kts | 178° |
| 2026-04-20 13:02 | -33.39065 | -70.78592 | 1584 ft | 142 kts | 178° |
| 2026-04-20 13:02 | -33.40179 | -70.78539 | 1603 ft | 177 kts | 179° |
| 2026-04-20 13:02 | -33.41411 | -70.78500 | 2090 ft | 176 kts | 180° |
| 2026-04-20 13:02 | -33.42645 | -70.78477 | 2563 ft | 181 kts | 180° |
| 2026-04-20 13:03 | -33.43953 | -70.78468 | 2933 ft | 192 kts | 180° |
| 2026-04-20 13:03 | -33.45324 | -70.78439 | 3225 ft | 204 kts | 178° |
| 2026-04-20 13:03 | -33.46783 | -70.78371 | 3588 ft | 208 kts | 178° |
| 2026-04-20 13:03 | -33.48231 | -70.78301 | 3926 ft | 214 kts | 179° |
| 2026-04-20 13:04 | -33.49761 | -70.78249 | 4110 ft | 228 kts | 180° |
| 2026-04-20 13:04 | -33.51400 | -70.78249 | 4339 ft | 240 kts | 186° |
| 2026-04-20 13:04 | -33.53098 | -70.78632 | 4432 ft | 259 kts | 200° |
| 2026-04-20 13:04 | -33.54715 | -70.79594 | 4924 ft | 257 kts | 218° |
| 2026-04-20 13:05 | -33.56018 | -70.80980 | 5629 ft | 248 kts | 231° |
| 2026-04-20 13:05 | -33.57029 | -70.82655 | 6031 ft | 251 kts | 245° |
| 2026-04-20 13:05 | -33.57650 | -70.84655 | 6236 ft | 262 kts | 261° |
| 2026-04-20 13:05 | -33.57827 | -70.86821 | 6654 ft | 264 kts | 276° |
| 2026-04-20 13:06 | -33.57557 | -70.88916 | 7374 ft | 252 kts | 288° |
| 2026-04-20 13:06 | -33.56982 | -70.90833 | 8085 ft | 243 kts | 298° |
| 2026-04-20 13:06 | -33.56137 | -70.92619 | 8406 ft | 251 kts | 310° |
| 2026-04-20 13:06 | -33.54881 | -70.94120 | 8761 ft | 256 kts | 326° |
| 2026-04-20 13:07 | -33.53337 | -70.95132 | 9453 ft | 250 kts | 338° |
| 2026-04-20 13:07 | -33.51762 | -70.95841 | 10289 ft | 241 kts | 338° |
| 2026-04-20 13:07 | -33.50200 | -70.96551 | 10816 ft | 244 kts | 338° |
| 2026-04-20 13:07 | -33.48624 | -70.97457 | 10457 ft | 259 kts | 329° |
| 2026-04-20 13:08 | -33.47075 | -70.98578 | 10027 ft | 261 kts | 332° |
| 2026-04-20 13:08 | -33.45397 | -70.99400 | 9604 ft | 261 kts | 343° |
| 2026-04-20 13:08 | -33.43654 | -70.99995 | 9223 ft | 260 kts | 342° |
| 2026-04-20 13:08 | -33.41937 | -71.00649 | 9126 ft | 249 kts | 341° |
| 2026-04-20 13:09 | -33.40312 | -71.01301 | 9158 ft | 247 kts | 340° |
| 2026-04-20 13:09 | -33.38698 | -71.01948 | 9152 ft | 247 kts | 340° |
| 2026-04-20 13:09 | -33.37047 | -71.02602 | 9162 ft | 249 kts | 341° |
| 2026-04-20 13:09 | -33.35386 | -71.03254 | 9168 ft | 254 kts | 341° |
| 2026-04-20 13:10 | -33.33674 | -71.03924 | 9585 ft | 264 kts | 341° |
| 2026-04-20 13:10 | -33.31952 | -71.04595 | 10407 ft | 260 kts | 341° |
| 2026-04-20 13:10 | -33.30206 | -71.05277 | 10842 ft | 271 kts | 341° |
| 2026-04-20 13:10 | -33.28368 | -71.05997 | 11236 ft | 282 kts | 340° |
| 2026-04-20 13:11 | -33.26472 | -71.06738 | 11580 ft | 295 kts | 340° |
| 2026-04-20 13:11 | -33.24455 | -71.07526 | 11915 ft | 308 kts | 340° |
| 2026-04-20 13:11 | -33.22385 | -71.08334 | 12267 ft | 320 kts | 340° |
| 2026-04-20 13:11 | -33.20278 | -71.09154 | 12805 ft | 325 kts | 340° |
| 2026-04-20 13:12 | -33.18108 | -71.09998 | 13514 ft | 326 kts | 340° |
| 2026-04-20 13:12 | -33.15948 | -71.10837 | 14097 ft | 329 kts | 340° |
| 2026-04-20 13:12 | -33.13784 | -71.11678 | 14661 ft | 333 kts | 339° |
| 2026-04-20 13:12 | -33.11562 | -71.12545 | 15234 ft | 337 kts | 339° |
| 2026-04-20 13:13 | -33.09311 | -71.13423 | 15746 ft | 341 kts | 339° |
| 2026-04-20 13:13 | -33.07034 | -71.14309 | 16298 ft | 344 kts | 339° |
| 2026-04-20 13:13 | -33.04747 | -71.15199 | 16738 ft | 350 kts | 339° |
| 2026-04-20 13:13 | -33.02425 | -71.16101 | 17313 ft | 351 kts | 338° |
| 2026-04-20 13:14 | -33.00084 | -71.17010 | 17772 ft | 356 kts | 338° |
| 2026-04-20 13:14 | -32.97730 | -71.17901 | 18230 ft | 362 kts | 339° |
| 2026-04-20 13:14 | -32.95274 | -71.18646 | 18773 ft | 365 kts | 344° |
| 2026-04-20 13:14 | -32.92745 | -71.19070 | 19300 ft | 370 kts | 349° |
| 2026-04-20 13:15 | -32.90150 | -71.19252 | 19818 ft | 374 kts | 353° |
| 2026-04-20 13:15 | -32.87537 | -71.19315 | 20344 ft | 377 kts | 354° |
| 2026-04-20 13:15 | -32.84891 | -71.19334 | 20792 ft | 380 kts | 354° |
| 2026-04-20 13:15 | -32.82259 | -71.19348 | 21292 ft | 382 kts | 354° |
| 2026-04-20 13:16 | -32.79578 | -71.19367 | 21738 ft | 385 kts | 354° |
| 2026-04-20 13:16 | -32.76920 | -71.19392 | 22271 ft | 384 kts | 353° |
| 2026-04-20 13:16 | -32.74235 | -71.19425 | 22630 ft | 389 kts | 353° |
| 2026-04-20 13:16 | -32.71528 | -71.19464 | 23121 ft | 390 kts | 353° |
| 2026-04-20 13:17 | -32.68789 | -71.19508 | 23519 ft | 393 kts | 353° |
| 2026-04-20 13:17 | -32.66059 | -71.19554 | 23909 ft | 395 kts | 352° |
| 2026-04-20 13:17 | -32.63307 | -71.19601 | 24372 ft | 396 kts | 352° |
| 2026-04-20 13:17 | -32.60558 | -71.19649 | 24772 ft | 398 kts | 352° |
| 2026-04-20 13:18 | -32.57783 | -71.19698 | 25176 ft | 399 kts | 352° |
| 2026-04-20 13:18 | -32.54996 | -71.19750 | 25593 ft | 400 kts | 351° |
| 2026-04-20 13:18 | -32.52224 | -71.19800 | 25972 ft | 402 kts | 351° |
| 2026-04-20 13:18 | -32.49390 | -71.19855 | 26281 ft | 405 kts | 351° |
| 2026-04-20 13:19 | -32.46573 | -71.19906 | 26621 ft | 407 kts | 351° |
| 2026-04-20 13:19 | -32.43743 | -71.19957 | 27005 ft | 407 kts | 351° |
| 2026-04-20 13:19 | -32.40913 | -71.20008 | 27298 ft | 410 kts | 351° |
| 2026-04-20 13:19 | -32.38054 | -71.20061 | 27659 ft | 411 kts | 350° |
| 2026-04-20 13:20 | -32.35203 | -71.20112 | 28013 ft | 412 kts | 350° |
| 2026-04-20 13:20 | -32.32318 | -71.20164 | 28362 ft | 413 kts | 350° |
| 2026-04-20 13:20 | -32.29444 | -71.20216 | 28628 ft | 415 kts | 349° |
| 2026-04-20 13:20 | -32.26544 | -71.20267 | 29041 ft | 413 kts | 349° |
| 2026-04-20 13:21 | -32.23669 | -71.20320 | 29221 ft | 417 kts | 349° |
| 2026-04-20 13:21 | -32.20800 | -71.20370 | 29701 ft | 413 kts | 349° |
| 2026-04-20 13:21 | -32.17910 | -71.20416 | 30136 ft | 411 kts | 348° |
| 2026-04-20 13:21 | -32.15054 | -71.20462 | 30491 ft | 410 kts | 348° |
| 2026-04-20 13:22 | -32.12220 | -71.20512 | 30804 ft | 409 kts | 348° |
| 2026-04-20 13:22 | -32.09391 | -71.20566 | 31076 ft | 410 kts | 348° |
| 2026-04-20 13:22 | -32.06534 | -71.20618 | 31451 ft | 407 kts | 348° |
| 2026-04-20 13:22 | -32.03687 | -71.20670 | 31750 ft | 407 kts | 347° |
| 2026-04-20 13:23 | -32.00855 | -71.20722 | 32045 ft | 406 kts | 347° |
| 2026-04-20 13:23 | -31.98048 | -71.20773 | 32351 ft | 405 kts | 347° |
| 2026-04-20 13:23 | -31.95223 | -71.20824 | 32624 ft | 405 kts | 347° |
| 2026-04-20 13:23 | -31.92418 | -71.20875 | 32889 ft | 404 kts | 347° |
| 2026-04-20 13:24 | -31.89586 | -71.20928 | 33028 ft | 407 kts | 347° |
| 2026-04-20 13:24 | -31.86766 | -71.20984 | 33142 ft | 410 kts | 347° |
| 2026-04-20 13:24 | -31.83918 | -71.21039 | 33415 ft | 409 kts | 347° |
| 2026-04-20 13:24 | -31.81060 | -71.21087 | 33763 ft | 406 kts | 347° |
| 2026-04-20 13:25 | -31.78258 | -71.21133 | 33995 ft | 406 kts | 347° |
| 2026-04-20 13:25 | -31.75417 | -71.21112 | 34152 ft | 410 kts | 349° |
| 2026-04-20 13:25 | -31.72541 | -71.20981 | 34155 ft | 414 kts | 351° |
| 2026-04-20 13:26 | -31.66777 | -71.20578 | 34160 ft | 414 kts | 351° |
| 2026-04-20 13:26 | -31.61025 | -71.20164 | 34161 ft | 414 kts | 351° |
| 2026-04-20 13:27 | -31.55276 | -71.19782 | 34165 ft | 417 kts | 351° |
| 2026-04-20 13:27 | -31.49466 | -71.19421 | 34168 ft | 422 kts | 351° |
| 2026-04-20 13:28 | -31.43571 | -71.19066 | 34169 ft | 424 kts | 351° |
| 2026-04-20 13:28 | -31.37693 | -71.18699 | 34169 ft | 421 kts | 351° |
| 2026-04-20 13:29 | -31.31792 | -71.18346 | 34167 ft | 425 kts | 351° |
| 2026-04-20 13:29 | -31.25923 | -71.17986 | 34169 ft | 423 kts | 351° |
| 2026-04-20 13:30 | -31.20039 | -71.17632 | 34171 ft | 425 kts | 351° |
| 2026-04-20 13:30 | -31.14098 | -71.17278 | 34168 ft | 427 kts | 351° |
| 2026-04-20 13:31 | -31.08204 | -71.16923 | 34166 ft | 425 kts | 351° |
| 2026-04-20 13:31 | -31.02291 | -71.16567 | 34168 ft | 427 kts | 351° |
| 2026-04-20 13:32 | -30.96351 | -71.16211 | 34169 ft | 427 kts | 351° |
| 2026-04-20 13:32 | -30.90403 | -71.15853 | 34154 ft | 428 kts | 352° |
| 2026-04-20 13:33 | -30.84444 | -71.15490 | 34152 ft | 426 kts | 351° |
| 2026-04-20 13:33 | -30.78752 | -71.15139 | 34235 ft | 425 kts | 351° |
| 2026-04-20 13:33 | -30.75764 | -71.14958 | 34462 ft | 425 kts | 351° |
| 2026-04-20 13:34 | -30.72827 | -71.14781 | 34697 ft | 424 kts | 351° |
| 2026-04-20 13:34 | -30.69895 | -71.14603 | 35010 ft | 420 kts | 351° |
| 2026-04-20 13:34 | -30.66975 | -71.14425 | 35294 ft | 418 kts | 351° |
| 2026-04-20 13:34 | -30.64079 | -71.14252 | 35450 ft | 418 kts | 351° |
| 2026-04-20 13:35 | -30.61187 | -71.14082 | 35532 ft | 421 kts | 351° |
| 2026-04-20 13:35 | -30.58241 | -71.13912 | 35659 ft | 421 kts | 351° |
| 2026-04-20 13:35 | -30.55303 | -71.13740 | 35777 ft | 422 kts | 351° |
| 2026-04-20 13:35 | -30.52363 | -71.13566 | 35971 ft | 421 kts | 351° |
| 2026-04-20 13:36 | -30.49453 | -71.13391 | 36129 ft | 420 kts | 351° |
| 2026-04-20 13:36 | -30.43595 | -71.13045 | 36152 ft | 424 kts | 351° |
| 2026-04-20 13:37 | -30.37670 | -71.12701 | 36149 ft | 427 kts | 351° |
| 2026-04-20 13:37 | -30.31703 | -71.12356 | 36151 ft | 430 kts | 351° |
| 2026-04-20 13:38 | -30.25744 | -71.12005 | 36146 ft | 428 kts | 351° |
| 2026-04-20 13:38 | -30.19809 | -71.11550 | 36144 ft | 432 kts | 353° |
| 2026-04-20 13:39 | -30.13793 | -71.10889 | 36126 ft | 434 kts | 354° |
| 2026-04-20 13:39 | -30.07771 | -71.10194 | 36113 ft | 436 kts | 354° |
| 2026-04-20 13:40 | -30.01732 | -71.09512 | 36103 ft | 434 kts | 354° |
| 2026-04-20 13:40 | -29.95729 | -71.08849 | 36104 ft | 433 kts | 354° |
| 2026-04-20 13:41 | -29.89750 | -71.08202 | 36103 ft | 434 kts | 354° |
| 2026-04-20 13:41 | -29.83704 | -71.07552 | 36109 ft | 434 kts | 354° |
| 2026-04-20 13:42 | -29.77668 | -71.06909 | 36128 ft | 436 kts | 354° |
| 2026-04-20 13:42 | -29.72321 | -71.06336 | 36128 ft | 434 kts | 354° |
| 2026-04-20 13:43 | -29.66316 | -71.05693 | 36134 ft | 435 kts | 354° |
| 2026-04-20 13:43 | -29.60270 | -71.05052 | 36146 ft | 437 kts | 354° |
| 2026-04-20 13:44 | -29.54203 | -71.04405 | 36151 ft | 435 kts | 354° |
| 2026-04-20 13:44 | -29.48176 | -71.03764 | 36156 ft | 436 kts | 354° |
| 2026-04-20 13:45 | -29.42110 | -71.03068 | 36158 ft | 440 kts | 355° |
| 2026-04-20 13:45 | -29.36052 | -71.02138 | 36175 ft | 440 kts | 357° |
| 2026-04-20 13:46 | -29.29969 | -71.01144 | 36173 ft | 442 kts | 357° |
| 2026-04-20 13:46 | -29.23890 | -71.00221 | 36181 ft | 439 kts | 355° |
| 2026-04-20 13:47 | -29.17831 | -70.99605 | 36179 ft | 434 kts | 353° |
| 2026-04-20 13:47 | -29.11814 | -70.99094 | 36163 ft | 437 kts | 353° |
| 2026-04-20 13:48 | -29.05738 | -70.98568 | 36157 ft | 436 kts | 354° |
| 2026-04-20 13:48 | -28.99708 | -70.98024 | 36161 ft | 437 kts | 354° |
| 2026-04-20 13:49 | -28.93596 | -70.97463 | 36155 ft | 439 kts | 354° |
| 2026-04-20 13:49 | -28.87516 | -70.96896 | 36163 ft | 438 kts | 354° |
| 2026-04-20 13:50 | -28.81441 | -70.96327 | 36202 ft | 439 kts | 354° |
| 2026-04-20 13:50 | -28.75345 | -70.95759 | 36195 ft | 439 kts | 354° |
| 2026-04-20 13:51 | -28.69262 | -70.95192 | 36183 ft | 440 kts | 354° |
| 2026-04-20 13:51 | -28.63137 | -70.94620 | 36149 ft | 439 kts | 354° |
| 2026-04-20 13:52 | -28.57066 | -70.94056 | 36132 ft | 441 kts | 354° |
| 2026-04-20 13:52 | -28.50948 | -70.93487 | 36114 ft | 439 kts | 354° |
| 2026-04-20 13:53 | -28.44822 | -70.92891 | 36123 ft | 442 kts | 354° |
| 2026-04-20 13:53 | -28.38690 | -70.92253 | 36123 ft | 442 kts | 355° |
| 2026-04-20 13:54 | -28.32575 | -70.91606 | 36109 ft | 441 kts | 355° |
| 2026-04-20 13:54 | -28.26479 | -70.90964 | 36127 ft | 441 kts | 355° |
| 2026-04-20 13:55 | -28.20327 | -70.90313 | 36115 ft | 442 kts | 355° |
| 2026-04-20 13:55 | -28.14184 | -70.89654 | 36116 ft | 442 kts | 355° |
| 2026-04-20 13:56 | -28.08062 | -70.88998 | 36116 ft | 443 kts | 355° |
| 2026-04-20 13:56 | -28.01926 | -70.88344 | 36115 ft | 443 kts | 355° |
| 2026-04-20 13:57 | -27.95793 | -70.87689 | 36120 ft | 442 kts | 355° |
| 2026-04-20 13:57 | -27.89632 | -70.87035 | 36107 ft | 443 kts | 355° |
| 2026-04-20 13:58 | -27.83514 | -70.86389 | 36108 ft | 444 kts | 355° |
| 2026-04-20 13:58 | -27.77360 | -70.85736 | 36110 ft | 443 kts | 355° |
| 2026-04-20 13:59 | -27.71225 | -70.85087 | 36106 ft | 443 kts | 355° |
| 2026-04-20 13:59 | -27.65070 | -70.84440 | 36105 ft | 444 kts | 355° |
| 2026-04-20 14:00 | -27.58917 | -70.83790 | 36104 ft | 444 kts | 355° |
| 2026-04-20 14:00 | -27.52725 | -70.83139 | 36104 ft | 446 kts | 355° |
| 2026-04-20 14:01 | -27.46564 | -70.82491 | 36104 ft | 444 kts | 355° |
| 2026-04-20 14:01 | -27.40390 | -70.81840 | 36104 ft | 446 kts | 355° |
| 2026-04-20 14:02 | -27.34239 | -70.81194 | 36104 ft | 445 kts | 355° |
| 2026-04-20 14:02 | -27.28041 | -70.80542 | 36103 ft | 445 kts | 355° |
| 2026-04-20 14:03 | -27.21865 | -70.79895 | 36104 ft | 445 kts | 355° |
| 2026-04-20 14:03 | -27.15727 | -70.79253 | 36109 ft | 445 kts | 355° |
| 2026-04-20 14:04 | -27.09536 | -70.78606 | 36110 ft | 446 kts | 355° |
| 2026-04-20 14:04 | -27.03377 | -70.77962 | 36110 ft | 447 kts | 355° |
| 2026-04-20 14:05 | -26.97173 | -70.77316 | 36111 ft | 445 kts | 355° |
| 2026-04-20 14:05 | -26.90979 | -70.76669 | 36109 ft | 447 kts | 355° |
| 2026-04-20 14:06 | -26.84780 | -70.76025 | 36108 ft | 446 kts | 355° |
| 2026-04-20 14:06 | -26.78609 | -70.75382 | 36101 ft | 444 kts | 355° |
| 2026-04-20 14:07 | -26.72445 | -70.74742 | 36100 ft | 446 kts | 355° |
| 2026-04-20 14:07 | -26.66283 | -70.74097 | 36103 ft | 445 kts | 356° |
| 2026-04-20 14:08 | -26.60083 | -70.73186 | 36103 ft | 450 kts | 359° |
| 2026-04-20 14:08 | -26.53899 | -70.72076 | 36107 ft | 450 kts | 360° |
| 2026-04-20 14:09 | -26.47683 | -70.70955 | 36109 ft | 452 kts | 360° |
| 2026-04-20 14:09 | -26.41520 | -70.69949 | 36110 ft | 446 kts | 357° |
| 2026-04-20 14:10 | -26.35325 | -70.69359 | 36112 ft | 445 kts | 354° |
| 2026-04-20 14:10 | -26.29148 | -70.68892 | 36108 ft | 443 kts | 354° |
| 2026-04-20 14:11 | -26.23007 | -70.68415 | 36108 ft | 444 kts | 355° |
| 2026-04-20 14:11 | -26.16845 | -70.67903 | 36110 ft | 443 kts | 355° |
| 2026-04-20 14:12 | -26.10701 | -70.67377 | 36110 ft | 444 kts | 355° |
| 2026-04-20 14:12 | -26.04531 | -70.66841 | 36113 ft | 445 kts | 355° |
| 2026-04-20 14:13 | -25.98365 | -70.66301 | 36112 ft | 443 kts | 355° |
| 2026-04-20 14:13 | -25.92199 | -70.65760 | 36114 ft | 444 kts | 355° |
| 2026-04-20 14:14 | -25.86058 | -70.65225 | 36115 ft | 444 kts | 355° |
| 2026-04-20 14:14 | -25.79888 | -70.64685 | 36118 ft | 442 kts | 355° |
| 2026-04-20 14:15 | -25.73736 | -70.64147 | 36118 ft | 443 kts | 355° |
| 2026-04-20 14:15 | -25.67565 | -70.63612 | 36121 ft | 443 kts | 355° |
| 2026-04-20 14:16 | -25.61416 | -70.63077 | 36120 ft | 444 kts | 355° |
| 2026-04-20 14:16 | -25.55246 | -70.62540 | 36120 ft | 443 kts | 355° |
| 2026-04-20 14:17 | -25.49108 | -70.62006 | 36118 ft | 442 kts | 355° |
| 2026-04-20 14:17 | -25.42972 | -70.61475 | 36115 ft | 443 kts | 355° |
| 2026-04-20 14:18 | -25.36837 | -70.60946 | 36110 ft | 443 kts | 355° |
| 2026-04-20 14:18 | -25.30652 | -70.60413 | 36103 ft | 443 kts | 356° |
| 2026-04-20 14:19 | -25.24526 | -70.59883 | 36094 ft | 444 kts | 356° |
| 2026-04-20 14:19 | -25.18364 | -70.59353 | 36093 ft | 443 kts | 356° |
| 2026-04-20 14:20 | -25.12207 | -70.58823 | 36080 ft | 443 kts | 355° |
| 2026-04-20 14:20 | -25.06043 | -70.58292 | 36095 ft | 443 kts | 356° |
| 2026-04-20 14:21 | -24.99915 | -70.57765 | 36090 ft | 442 kts | 355° |
| 2026-04-20 14:21 | -24.93755 | -70.57238 | 36114 ft | 444 kts | 356° |
| 2026-04-20 14:22 | -24.87514 | -70.56702 | 36144 ft | 443 kts | 356° |
| 2026-04-20 14:22 | -24.81291 | -70.56168 | 36199 ft | 443 kts | 356° |
| 2026-04-20 14:23 | -24.75060 | -70.55859 | 36248 ft | 438 kts | 352° |
| 2026-04-20 14:23 | -24.68930 | -70.55942 | 36249 ft | 437 kts | 350° |
| 2026-04-20 14:24 | -24.62815 | -70.56074 | 36234 ft | 435 kts | 351° |
| 2026-04-20 14:24 | -24.56665 | -70.56170 | 36222 ft | 437 kts | 351° |
| 2026-04-20 14:25 | -24.50507 | -70.56231 | 36216 ft | 436 kts | 351° |
| 2026-04-20 14:25 | -24.44400 | -70.56276 | 36191 ft | 437 kts | 351° |
| 2026-04-20 14:26 | -24.38320 | -70.56315 | 36175 ft | 438 kts | 351° |
| 2026-04-20 14:26 | -24.32250 | -70.56351 | 36160 ft | 436 kts | 351° |
| 2026-04-20 14:27 | -24.26154 | -70.56387 | 36141 ft | 436 kts | 351° |
| 2026-04-20 14:27 | -24.20054 | -70.56425 | 36137 ft | 437 kts | 351° |
| 2026-04-20 14:28 | -24.14000 | -70.56462 | 36136 ft | 437 kts | 351° |
| 2026-04-20 14:28 | -24.07893 | -70.56500 | 36126 ft | 436 kts | 351° |
| 2026-04-20 14:29 | -24.01845 | -70.56538 | 36118 ft | 438 kts | 351° |
| 2026-04-20 14:29 | -23.95727 | -70.56575 | 36108 ft | 437 kts | 352° |
| 2026-04-20 14:30 | -23.89639 | -70.56611 | 36099 ft | 437 kts | 351° |
| 2026-04-20 14:30 | -23.83555 | -70.56649 | 36097 ft | 437 kts | 351° |
| 2026-04-20 14:31 | -23.77466 | -70.56679 | 36095 ft | 437 kts | 352° |
| 2026-04-20 14:31 | -23.71402 | -70.56664 | 36090 ft | 438 kts | 352° |
| 2026-04-20 14:32 | -23.65301 | -70.56628 | 36094 ft | 438 kts | 352° |
| 2026-04-20 14:32 | -23.59204 | -70.56593 | 36090 ft | 437 kts | 352° |
| 2026-04-20 14:33 | -23.53115 | -70.56564 | 36093 ft | 438 kts | 352° |
| 2026-04-20 14:33 | -23.47017 | -70.56534 | 36087 ft | 436 kts | 352° |
| 2026-04-20 14:34 | -23.40924 | -70.56508 | 36092 ft | 438 kts | 352° |
| 2026-04-20 14:34 | -23.34819 | -70.56482 | 36095 ft | 437 kts | 352° |
| 2026-04-20 14:35 | -23.28730 | -70.56454 | 36097 ft | 438 kts | 352° |
| 2026-04-20 14:35 | -23.22641 | -70.56429 | 36099 ft | 437 kts | 352° |
| 2026-04-20 14:36 | -23.16576 | -70.56400 | 36097 ft | 434 kts | 352° |
| 2026-04-20 14:36 | -23.10498 | -70.56377 | 36092 ft | 437 kts | 352° |
| 2026-04-20 14:37 | -23.04412 | -70.56351 | 36089 ft | 437 kts | 352° |
| 2026-04-20 14:37 | -22.98330 | -70.56326 | 36091 ft | 437 kts | 352° |
| 2026-04-20 14:38 | -22.92234 | -70.56298 | 36082 ft | 436 kts | 352° |
| 2026-04-20 14:38 | -22.86145 | -70.56263 | 36083 ft | 437 kts | 352° |
| 2026-04-20 14:39 | -22.80070 | -70.56157 | 36082 ft | 438 kts | 353° |
| 2026-04-20 14:39 | -22.73963 | -70.56025 | 36083 ft | 438 kts | 353° |
| 2026-04-20 14:40 | -22.67876 | -70.55898 | 36082 ft | 438 kts | 353° |
| 2026-04-20 14:40 | -22.61758 | -70.55773 | 36076 ft | 438 kts | 353° |
| 2026-04-20 14:41 | -22.55658 | -70.55655 | 36080 ft | 438 kts | 353° |
| 2026-04-20 14:41 | -22.49583 | -70.55534 | 36077 ft | 437 kts | 353° |
| 2026-04-20 14:42 | -22.43483 | -70.55421 | 36083 ft | 439 kts | 353° |
| 2026-04-20 14:42 | -22.37361 | -70.55307 | 36077 ft | 438 kts | 353° |
| 2026-04-20 14:43 | -22.31272 | -70.55188 | 36082 ft | 437 kts | 353° |
| 2026-04-20 14:43 | -22.25159 | -70.55074 | 36081 ft | 437 kts | 353° |
| 2026-04-20 14:44 | -22.19062 | -70.54958 | 36082 ft | 439 kts | 353° |
| 2026-04-20 14:44 | -22.12987 | -70.54842 | 36081 ft | 437 kts | 353° |
| 2026-04-20 14:45 | -22.06875 | -70.54726 | 36079 ft | 437 kts | 353° |
| 2026-04-20 14:45 | -22.00773 | -70.54613 | 36083 ft | 439 kts | 353° |
| 2026-04-20 14:46 | -21.94666 | -70.54499 | 36081 ft | 439 kts | 353° |
| 2026-04-20 14:46 | -21.88555 | -70.54382 | 36081 ft | 436 kts | 353° |
| 2026-04-20 14:47 | -21.82460 | -70.54319 | 36082 ft | 438 kts | 352° |
| 2026-04-20 14:48 | -21.73275 | -70.54285 | 36081 ft | 438 kts | 353° |
| 2026-04-20 14:48 | -21.67194 | -70.54259 | 36078 ft | 437 kts | 353° |
| 2026-04-20 14:49 | -21.61113 | -70.54230 | 36080 ft | 440 kts | 353° |
| 2026-04-20 14:49 | -21.54979 | -70.54199 | 36081 ft | 439 kts | 353° |
| 2026-04-20 14:50 | -21.48863 | -70.54163 | 36081 ft | 438 kts | 353° |
| 2026-04-20 14:50 | -21.42716 | -70.54127 | 36080 ft | 440 kts | 353° |
| 2026-04-20 14:51 | -21.36598 | -70.54092 | 36082 ft | 438 kts | 353° |
| 2026-04-20 14:51 | -21.30489 | -70.54055 | 36079 ft | 438 kts | 353° |
| 2026-04-20 14:52 | -21.24413 | -70.54022 | 36082 ft | 439 kts | 353° |
| 2026-04-20 14:52 | -21.18291 | -70.53988 | 36083 ft | 440 kts | 353° |
| 2026-04-20 14:53 | -21.12139 | -70.53952 | 36080 ft | 440 kts | 353° |
| 2026-04-20 14:53 | -21.05987 | -70.53919 | 36080 ft | 440 kts | 353° |
| 2026-04-20 14:54 | -20.99886 | -70.53882 | 36079 ft | 439 kts | 353° |
| 2026-04-20 14:54 | -20.93887 | -70.53848 | 36081 ft | 437 kts | 353° |
| 2026-04-20 14:55 | -20.87814 | -70.53812 | 36083 ft | 439 kts | 353° |
| 2026-04-20 14:55 | -20.81696 | -70.53780 | 36079 ft | 439 kts | 354° |
| 2026-04-20 14:56 | -20.75572 | -70.53743 | 36082 ft | 439 kts | 354° |
| 2026-04-20 14:56 | -20.69456 | -70.53711 | 36081 ft | 441 kts | 354° |
| 2026-04-20 14:57 | -20.63285 | -70.53677 | 36080 ft | 439 kts | 354° |
| 2026-04-20 14:57 | -20.57179 | -70.53641 | 36084 ft | 441 kts | 354° |
| 2026-04-20 14:58 | -20.51012 | -70.53606 | 36082 ft | 441 kts | 354° |
| 2026-04-20 14:58 | -20.44890 | -70.53571 | 36079 ft | 440 kts | 354° |
| 2026-04-20 14:59 | -20.38739 | -70.53533 | 36079 ft | 440 kts | 354° |
| 2026-04-20 14:59 | -20.32613 | -70.53498 | 36081 ft | 441 kts | 354° |
| 2026-04-20 15:00 | -20.26473 | -70.53463 | 36080 ft | 441 kts | 354° |
| 2026-04-20 15:00 | -20.20307 | -70.53428 | 36078 ft | 441 kts | 354° |
| 2026-04-20 15:01 | -20.14190 | -70.53394 | 36079 ft | 441 kts | 354° |
| 2026-04-20 15:01 | -20.08039 | -70.53359 | 36079 ft | 442 kts | 354° |
| 2026-04-20 15:02 | -20.01885 | -70.53324 | 36080 ft | 441 kts | 354° |
| 2026-04-20 15:02 | -19.95775 | -70.53536 | 36081 ft | 437 kts | 349° |
| 2026-04-20 15:03 | -19.89707 | -70.54270 | 36084 ft | 436 kts | 347° |
| 2026-04-20 15:03 | -19.83676 | -70.55107 | 36088 ft | 437 kts | 347° |
| 2026-04-20 15:04 | -19.77631 | -70.55914 | 36088 ft | 436 kts | 347° |
| 2026-04-20 15:04 | -19.71622 | -70.56685 | 36087 ft | 436 kts | 348° |
| 2026-04-20 15:05 | -19.65584 | -70.57443 | 36085 ft | 437 kts | 348° |
| 2026-04-20 15:05 | -19.59526 | -70.58195 | 36086 ft | 436 kts | 348° |
| 2026-04-20 15:06 | -19.53491 | -70.58943 | 36078 ft | 437 kts | 348° |
| 2026-04-20 15:06 | -19.47446 | -70.59645 | 36072 ft | 438 kts | 351° |
| 2026-04-20 15:07 | -19.41300 | -70.59519 | 36071 ft | 445 kts | 2° |
| 2026-04-20 15:07 | -19.35192 | -70.58311 | 36070 ft | 449 kts | 7° |
| 2026-04-20 15:08 | -19.29084 | -70.56788 | 36067 ft | 449 kts | 8° |
| 2026-04-20 15:08 | -19.23056 | -70.55258 | 36065 ft | 447 kts | 8° |
| 2026-04-20 15:09 | -19.16945 | -70.53745 | 36061 ft | 449 kts | 8° |
| 2026-04-20 15:09 | -19.10851 | -70.52262 | 36066 ft | 447 kts | 8° |
| 2026-04-20 15:10 | -19.04782 | -70.50802 | 36064 ft | 448 kts | 8° |
| 2026-04-20 15:10 | -18.98671 | -70.49340 | 36063 ft | 449 kts | 8° |
| 2026-04-20 15:11 | -18.92592 | -70.47887 | 36070 ft | 448 kts | 8° |
| 2026-04-20 15:11 | -18.86512 | -70.46439 | 36078 ft | 447 kts | 8° |
| 2026-04-20 15:12 | -18.80411 | -70.44985 | 36081 ft | 448 kts | 8° |
| 2026-04-20 15:12 | -18.74354 | -70.43542 | 36083 ft | 447 kts | 8° |
| 2026-04-20 15:13 | -18.68266 | -70.42094 | 36084 ft | 448 kts | 8° |
| 2026-04-20 15:13 | -18.62205 | -70.40653 | 36097 ft | 446 kts | 8° |
| 2026-04-20 15:14 | -18.56128 | -70.39208 | 36091 ft | 446 kts | 8° |
| 2026-04-20 15:14 | -18.50097 | -70.37778 | 36092 ft | 446 kts | 8° |
| 2026-04-20 15:15 | -18.44021 | -70.36339 | 36100 ft | 446 kts | 8° |
| 2026-04-20 15:15 | -18.37938 | -70.35170 | 36107 ft | 442 kts | 0° |
| 2026-04-20 15:16 | -18.31847 | -70.35555 | 36113 ft | 434 kts | 347° |
| 2026-04-20 15:16 | -18.25934 | -70.36783 | 36111 ft | 431 kts | 345° |
| 2026-04-20 15:17 | -18.20083 | -70.38152 | 36116 ft | 432 kts | 345° |
| 2026-04-20 15:17 | -18.14196 | -70.39498 | 36125 ft | 434 kts | 345° |
| 2026-04-20 15:18 | -18.08271 | -70.40809 | 36128 ft | 433 kts | 345° |
| 2026-04-20 15:18 | -18.02368 | -70.42093 | 36134 ft | 431 kts | 345° |
| 2026-04-20 15:19 | -17.96490 | -70.43363 | 36151 ft | 432 kts | 345° |
| 2026-04-20 15:19 | -17.90618 | -70.44628 | 36192 ft | 433 kts | 346° |
| 2026-04-20 15:20 | -17.84692 | -70.45904 | 36234 ft | 431 kts | 346° |
| 2026-04-20 15:20 | -17.78808 | -70.47170 | 36233 ft | 433 kts | 346° |
| 2026-04-20 15:21 | -17.72876 | -70.48446 | 36259 ft | 433 kts | 346° |
| 2026-04-20 15:21 | -17.66999 | -70.49708 | 36304 ft | 432 kts | 346° |
| 2026-04-20 15:22 | -17.61072 | -70.50980 | 36400 ft | 431 kts | 346° |
| 2026-04-20 15:22 | -17.55192 | -70.52241 | 36418 ft | 431 kts | 346° |
| 2026-04-20 15:23 | -17.49296 | -70.53506 | 36504 ft | 432 kts | 346° |
| 2026-04-20 15:23 | -17.43388 | -70.54772 | 36509 ft | 433 kts | 346° |
| 2026-04-20 15:24 | -17.37487 | -70.56035 | 36614 ft | 431 kts | 346° |
| 2026-04-20 15:24 | -17.31593 | -70.57295 | 36641 ft | 432 kts | 346° |
| 2026-04-20 15:25 | -17.25733 | -70.58549 | 36656 ft | 430 kts | 346° |
| 2026-04-20 15:25 | -17.19839 | -70.59808 | 36745 ft | 431 kts | 346° |
| 2026-04-20 15:26 | -17.13939 | -70.61067 | 36770 ft | 431 kts | 346° |
| 2026-04-20 15:26 | -17.08053 | -70.62324 | 36822 ft | 431 kts | 346° |
| 2026-04-20 15:27 | -17.02175 | -70.63578 | 36871 ft | 430 kts | 347° |
| 2026-04-20 15:27 | -16.96300 | -70.64830 | 36884 ft | 432 kts | 346° |
| 2026-04-20 15:28 | -16.90378 | -70.66092 | 36833 ft | 432 kts | 347° |
| 2026-04-20 15:28 | -16.84520 | -70.67339 | 36803 ft | 430 kts | 347° |
| 2026-04-20 15:29 | -16.78622 | -70.68594 | 36785 ft | 431 kts | 347° |
| 2026-04-20 15:29 | -16.72714 | -70.69850 | 36748 ft | 431 kts | 347° |
| 2026-04-20 15:30 | -16.66842 | -70.71097 | 36777 ft | 431 kts | 347° |
| 2026-04-20 15:30 | -16.60963 | -70.72345 | 36848 ft | 430 kts | 347° |
| 2026-04-20 15:31 | -16.55105 | -70.73589 | 36893 ft | 431 kts | 347° |
| 2026-04-20 15:31 | -16.49211 | -70.74839 | 36931 ft | 430 kts | 347° |
| 2026-04-20 15:32 | -16.43308 | -70.76090 | 36936 ft | 430 kts | 347° |
| 2026-04-20 15:32 | -16.37472 | -70.77326 | 36928 ft | 431 kts | 347° |
| 2026-04-20 15:33 | -16.31575 | -70.78576 | 36933 ft | 430 kts | 347° |
| 2026-04-20 15:33 | -16.25695 | -70.79823 | 36934 ft | 430 kts | 347° |
| 2026-04-20 15:34 | -16.19800 | -70.81073 | 36946 ft | 430 kts | 347° |
| 2026-04-20 15:34 | -16.13936 | -70.82316 | 36953 ft | 430 kts | 347° |
| 2026-04-20 15:35 | -16.08067 | -70.83559 | 36977 ft | 431 kts | 347° |
| 2026-04-20 15:35 | -16.02171 | -70.84807 | 36992 ft | 430 kts | 347° |
| 2026-04-20 15:36 | -15.96307 | -70.86046 | 37002 ft | 431 kts | 347° |
| 2026-04-20 15:36 | -15.90415 | -70.87292 | 37009 ft | 429 kts | 347° |
| 2026-04-20 15:37 | -15.84584 | -70.88526 | 36991 ft | 430 kts | 347° |
| 2026-04-20 15:37 | -15.78684 | -70.89773 | 36989 ft | 431 kts | 347° |
| 2026-04-20 15:38 | -15.72805 | -70.91015 | 36983 ft | 431 kts | 347° |
| 2026-04-20 15:38 | -15.66937 | -70.92252 | 36975 ft | 429 kts | 347° |
| 2026-04-20 15:39 | -15.61058 | -70.93490 | 36986 ft | 430 kts | 347° |
| 2026-04-20 15:39 | -15.55209 | -70.94721 | 36967 ft | 429 kts | 347° |
| 2026-04-20 15:40 | -15.49356 | -70.95955 | 36968 ft | 431 kts | 347° |
| 2026-04-20 15:40 | -15.43456 | -70.97197 | 36972 ft | 430 kts | 347° |
| 2026-04-20 15:41 | -15.37571 | -70.98434 | 36973 ft | 430 kts | 347° |
| 2026-04-20 15:41 | -15.31726 | -70.99661 | 36978 ft | 429 kts | 348° |
| 2026-04-20 15:42 | -15.25832 | -71.00897 | 36987 ft | 431 kts | 348° |
| 2026-04-20 15:42 | -15.19981 | -71.02125 | 36977 ft | 430 kts | 347° |
| 2026-04-20 15:43 | -15.14086 | -71.03361 | 36956 ft | 430 kts | 347° |
| 2026-04-20 15:43 | -15.08200 | -71.04594 | 36941 ft | 433 kts | 347° |
| 2026-04-20 15:44 | -15.02319 | -71.05825 | 36914 ft | 430 kts | 348° |
| 2026-04-20 15:44 | -14.96443 | -71.07055 | 36908 ft | 431 kts | 348° |
| 2026-04-20 15:45 | -14.90551 | -71.08286 | 36921 ft | 430 kts | 348° |
| 2026-04-20 15:45 | -14.84640 | -71.09522 | 36951 ft | 430 kts | 348° |
| 2026-04-20 15:46 | -14.78745 | -71.10754 | 36963 ft | 433 kts | 348° |
| 2026-04-20 15:46 | -14.72832 | -71.11988 | 36972 ft | 431 kts | 348° |
| 2026-04-20 15:47 | -14.66971 | -71.13212 | 36980 ft | 431 kts | 348° |
| 2026-04-20 15:47 | -14.61093 | -71.14439 | 36977 ft | 431 kts | 348° |
| 2026-04-20 15:48 | -14.55196 | -71.15668 | 36992 ft | 432 kts | 348° |
| 2026-04-20 15:48 | -14.49268 | -71.16905 | 36991 ft | 432 kts | 348° |
| 2026-04-20 15:49 | -14.43361 | -71.18135 | 36998 ft | 434 kts | 348° |
| 2026-04-20 15:49 | -14.37470 | -71.19362 | 37004 ft | 431 kts | 348° |
| 2026-04-20 15:50 | -14.31555 | -71.20593 | 37032 ft | 431 kts | 348° |
| 2026-04-20 15:50 | -14.25685 | -71.21814 | 37018 ft | 432 kts | 348° |
| 2026-04-20 15:51 | -14.19750 | -71.23047 | 37021 ft | 433 kts | 348° |
| 2026-04-20 15:51 | -14.13843 | -71.24274 | 37014 ft | 434 kts | 348° |
| 2026-04-20 15:52 | -14.07934 | -71.25500 | 37013 ft | 434 kts | 348° |
| 2026-04-20 15:52 | -14.01992 | -71.26733 | 37016 ft | 432 kts | 348° |
| 2026-04-20 15:53 | -13.93134 | -71.28570 | 37005 ft | 435 kts | 349° |
| 2026-04-20 15:53 | -13.87196 | -71.29800 | 37000 ft | 434 kts | 348° |
| 2026-04-20 15:54 | -13.81243 | -71.31033 | 36963 ft | 434 kts | 348° |
| 2026-04-20 15:54 | -13.75313 | -71.32261 | 36952 ft | 434 kts | 348° |
| 2026-04-20 15:55 | -13.69378 | -71.33491 | 36936 ft | 435 kts | 348° |
| 2026-04-20 15:55 | -13.63452 | -71.34716 | 36916 ft | 435 kts | 349° |
| 2026-04-20 15:56 | -13.57515 | -71.35941 | 36888 ft | 434 kts | 349° |
| 2026-04-20 15:56 | -13.51542 | -71.37180 | 36856 ft | 436 kts | 348° |
| 2026-04-20 15:57 | -13.45580 | -71.38416 | 36835 ft | 436 kts | 348° |
| 2026-04-20 15:57 | -13.39643 | -71.39642 | 36792 ft | 435 kts | 349° |
| 2026-04-20 15:58 | -13.33712 | -71.40864 | 36758 ft | 437 kts | 349° |
| 2026-04-20 15:58 | -13.27722 | -71.42099 | 36651 ft | 437 kts | 348° |
| 2026-04-20 15:59 | -13.21709 | -71.43341 | 36627 ft | 439 kts | 348° |
| 2026-04-20 15:59 | -13.15725 | -71.44577 | 36548 ft | 438 kts | 348° |
| 2026-04-20 16:00 | -13.09742 | -71.45812 | 36491 ft | 437 kts | 348° |
| 2026-04-20 16:00 | -13.03797 | -71.47038 | 36486 ft | 437 kts | 348° |
| 2026-04-20 16:01 | -12.97769 | -71.48281 | 36399 ft | 440 kts | 348° |
| 2026-04-20 16:01 | -12.91751 | -71.49522 | 36391 ft | 439 kts | 349° |
| 2026-04-20 16:02 | -12.85734 | -71.50758 | 36316 ft | 441 kts | 349° |
| 2026-04-20 16:02 | -12.79692 | -71.52000 | 36303 ft | 440 kts | 349° |
| 2026-04-20 16:03 | -12.73683 | -71.53236 | 36262 ft | 439 kts | 349° |
| 2026-04-20 16:03 | -12.67673 | -71.54469 | 36269 ft | 440 kts | 349° |
| 2026-04-20 16:04 | -12.61657 | -71.55705 | 36261 ft | 442 kts | 349° |
| 2026-04-20 16:04 | -12.55617 | -71.56943 | 36299 ft | 442 kts | 349° |
| 2026-04-20 16:05 | -12.49551 | -71.58187 | 36321 ft | 443 kts | 349° |
| 2026-04-20 16:05 | -12.43489 | -71.59430 | 36285 ft | 443 kts | 349° |
| 2026-04-20 16:06 | -12.37458 | -71.60669 | 36268 ft | 444 kts | 349° |
| 2026-04-20 16:06 | -12.31384 | -71.61919 | 36249 ft | 442 kts | 349° |
| 2026-04-20 16:07 | -12.25328 | -71.63163 | 36227 ft | 444 kts | 349° |
| 2026-04-20 16:07 | -12.19272 | -71.64407 | 36170 ft | 444 kts | 349° |
| 2026-04-20 16:08 | -12.13166 | -71.65661 | 36090 ft | 446 kts | 349° |
| 2026-04-20 16:08 | -12.07077 | -71.66911 | 36076 ft | 446 kts | 349° |
| 2026-04-20 16:09 | -12.00982 | -71.68162 | 36042 ft | 445 kts | 349° |
| 2026-04-20 16:09 | -11.94905 | -71.69407 | 36040 ft | 445 kts | 349° |
| 2026-04-20 16:10 | -11.88802 | -71.70657 | 36020 ft | 445 kts | 349° |
| 2026-04-20 16:10 | -11.82767 | -71.71893 | 36018 ft | 444 kts | 349° |
| 2026-04-20 16:11 | -11.76650 | -71.73146 | 36015 ft | 446 kts | 349° |
| 2026-04-20 16:11 | -11.70557 | -71.74393 | 36020 ft | 446 kts | 349° |
| 2026-04-20 16:12 | -11.64468 | -71.75639 | 36017 ft | 444 kts | 349° |
| 2026-04-20 16:12 | -11.58397 | -71.76880 | 36022 ft | 445 kts | 349° |
| 2026-04-20 16:13 | -11.52336 | -71.78119 | 36018 ft | 444 kts | 349° |
| 2026-04-20 16:13 | -11.46223 | -71.79368 | 36024 ft | 446 kts | 349° |
| 2026-04-20 16:14 | -11.40140 | -71.80610 | 36023 ft | 444 kts | 349° |
| 2026-04-20 16:14 | -11.34061 | -71.81852 | 36025 ft | 445 kts | 349° |
| 2026-04-20 16:15 | -11.27986 | -71.83092 | 36026 ft | 444 kts | 349° |
| 2026-04-20 16:15 | -11.21920 | -71.84328 | 36026 ft | 444 kts | 349° |
| 2026-04-20 16:16 | -11.15851 | -71.85566 | 36022 ft | 444 kts | 349° |
| 2026-04-20 16:16 | -11.09764 | -71.86806 | 36020 ft | 444 kts | 348° |
| 2026-04-20 16:17 | -11.03681 | -71.88045 | 36013 ft | 445 kts | 348° |
| 2026-04-20 16:17 | -10.97605 | -71.89284 | 36004 ft | 444 kts | 349° |
| 2026-04-20 16:18 | -10.91562 | -71.90515 | 35992 ft | 444 kts | 349° |
| 2026-04-20 16:18 | -10.85451 | -71.91759 | 35982 ft | 443 kts | 349° |
| 2026-04-20 16:19 | -10.79384 | -71.92992 | 35982 ft | 445 kts | 349° |
| 2026-04-20 16:19 | -10.73292 | -71.94231 | 35986 ft | 445 kts | 349° |
| 2026-04-20 16:20 | -10.67230 | -71.95462 | 35986 ft | 444 kts | 349° |
| 2026-04-20 16:20 | -10.61169 | -71.96693 | 35987 ft | 444 kts | 349° |
| 2026-04-20 16:21 | -10.55058 | -71.97934 | 35984 ft | 446 kts | 349° |
| 2026-04-20 16:21 | -10.48978 | -71.99171 | 35985 ft | 447 kts | 349° |
| 2026-04-20 16:22 | -10.42876 | -72.00410 | 35983 ft | 447 kts | 349° |
| 2026-04-20 16:22 | -10.36753 | -72.01650 | 35982 ft | 447 kts | 349° |
| 2026-04-20 16:23 | -10.30626 | -72.02891 | 35991 ft | 448 kts | 349° |
| 2026-04-20 16:23 | -10.24472 | -72.04134 | 35994 ft | 449 kts | 349° |
| 2026-04-20 16:24 | -10.18365 | -72.05370 | 35993 ft | 449 kts | 349° |
| 2026-04-20 16:24 | -10.12211 | -72.06615 | 35987 ft | 449 kts | 349° |
| 2026-04-20 16:25 | -10.06095 | -72.07853 | 35986 ft | 448 kts | 349° |
| 2026-04-20 16:25 | -9.99931 | -72.09100 | 35988 ft | 450 kts | 349° |
| 2026-04-20 16:26 | -9.93800 | -72.10326 | 35988 ft | 450 kts | 350° |
| 2026-04-20 16:26 | -9.87621 | -72.11549 | 35987 ft | 450 kts | 350° |
| 2026-04-20 16:27 | -9.81474 | -72.12764 | 35989 ft | 450 kts | 350° |
| 2026-04-20 16:27 | -9.75334 | -72.13979 | 35989 ft | 449 kts | 350° |
| 2026-04-20 16:28 | -9.69180 | -72.15196 | 35986 ft | 449 kts | 350° |
| 2026-04-20 16:28 | -9.63017 | -72.16417 | 35985 ft | 449 kts | 350° |
| 2026-04-20 16:29 | -9.56877 | -72.17630 | 35981 ft | 451 kts | 350° |
| 2026-04-20 16:29 | -9.50709 | -72.18847 | 35978 ft | 450 kts | 350° |
| 2026-04-20 16:30 | -9.44526 | -72.20031 | 35975 ft | 450 kts | 351° |
| 2026-04-20 16:30 | -9.38361 | -72.21191 | 35968 ft | 450 kts | 351° |
| 2026-04-20 16:31 | -9.32200 | -72.22350 | 35955 ft | 450 kts | 351° |
| 2026-04-20 16:31 | -9.26020 | -72.23517 | 35949 ft | 450 kts | 351° |
| 2026-04-20 16:32 | -9.19848 | -72.24683 | 35950 ft | 450 kts | 351° |
| 2026-04-20 16:32 | -9.13656 | -72.25854 | 35952 ft | 451 kts | 351° |
| 2026-04-20 16:33 | -9.07513 | -72.27016 | 35953 ft | 451 kts | 351° |
| 2026-04-20 16:33 | -9.01324 | -72.28185 | 35958 ft | 451 kts | 351° |
| 2026-04-20 16:34 | -8.95142 | -72.29359 | 35960 ft | 451 kts | 350° |
| 2026-04-20 16:34 | -8.88954 | -72.30606 | 35959 ft | 451 kts | 349° |
| 2026-04-20 16:35 | -8.82809 | -72.31879 | 35958 ft | 451 kts | 349° |
| 2026-04-20 16:35 | -8.76649 | -72.33154 | 35955 ft | 451 kts | 349° |
| 2026-04-20 16:36 | -8.70472 | -72.34428 | 35955 ft | 451 kts | 349° |
| 2026-04-20 16:36 | -8.64301 | -72.35698 | 35954 ft | 450 kts | 349° |
| 2026-04-20 16:37 | -8.58167 | -72.36955 | 35953 ft | 450 kts | 349° |
| 2026-04-20 16:37 | -8.52035 | -72.38211 | 35953 ft | 450 kts | 349° |
| 2026-04-20 16:38 | -8.45855 | -72.39476 | 35952 ft | 451 kts | 349° |
| 2026-04-20 16:38 | -8.39702 | -72.40735 | 35953 ft | 450 kts | 349° |
| 2026-04-20 16:39 | -8.33546 | -72.41994 | 35953 ft | 450 kts | 350° |
| 2026-04-20 16:39 | -8.27399 | -72.43253 | 35953 ft | 450 kts | 349° |
| 2026-04-20 16:40 | -8.21261 | -72.44507 | 35954 ft | 450 kts | 350° |
| 2026-04-20 16:40 | -8.15084 | -72.45769 | 35954 ft | 450 kts | 350° |
| 2026-04-20 16:41 | -8.08948 | -72.47023 | 35953 ft | 449 kts | 350° |
| 2026-04-20 16:41 | -8.02819 | -72.48275 | 35953 ft | 449 kts | 350° |
| 2026-04-20 16:42 | -7.96678 | -72.49528 | 35953 ft | 450 kts | 350° |
| 2026-04-20 16:42 | -7.90534 | -72.50783 | 35952 ft | 450 kts | 350° |
| 2026-04-20 16:43 | -7.84375 | -72.52039 | 35952 ft | 450 kts | 350° |
| 2026-04-20 16:43 | -7.78196 | -72.53299 | 35952 ft | 450 kts | 350° |
| 2026-04-20 16:44 | -7.72059 | -72.54551 | 35947 ft | 450 kts | 350° |
| 2026-04-20 16:44 | -7.65898 | -72.55794 | 35946 ft | 450 kts | 350° |
| 2026-04-20 16:45 | -7.59762 | -72.57011 | 35950 ft | 450 kts | 350° |
| 2026-04-20 16:45 | -7.53593 | -72.58234 | 35950 ft | 450 kts | 350° |
| 2026-04-20 16:46 | -7.47421 | -72.59457 | 35952 ft | 450 kts | 350° |
| 2026-04-20 16:46 | -7.41245 | -72.60683 | 35943 ft | 451 kts | 350° |
| 2026-04-20 16:47 | -7.35112 | -72.61903 | 35937 ft | 450 kts | 350° |
| 2026-04-20 16:47 | -7.28955 | -72.63126 | 35937 ft | 450 kts | 350° |
| 2026-04-20 16:48 | -7.22799 | -72.64347 | 35934 ft | 451 kts | 350° |
| 2026-04-20 16:48 | -7.16619 | -72.65573 | 35931 ft | 450 kts | 350° |
| 2026-04-20 16:49 | -7.10462 | -72.66794 | 35930 ft | 450 kts | 350° |
| 2026-04-20 16:49 | -7.04303 | -72.68015 | 35936 ft | 450 kts | 350° |
| 2026-04-20 16:50 | -6.98147 | -72.69235 | 35935 ft | 450 kts | 350° |
| 2026-04-20 16:50 | -6.91988 | -72.70455 | 35935 ft | 450 kts | 350° |
| 2026-04-20 16:51 | -6.85807 | -72.71680 | 35935 ft | 450 kts | 350° |
| 2026-04-20 16:51 | -6.79642 | -72.72902 | 35934 ft | 450 kts | 350° |
| 2026-04-20 16:52 | -6.73504 | -72.74117 | 35926 ft | 450 kts | 350° |
| 2026-04-20 16:52 | -6.67307 | -72.75345 | 35919 ft | 450 kts | 350° |
| 2026-04-20 16:53 | -6.61181 | -72.76557 | 35920 ft | 450 kts | 350° |
| 2026-04-20 16:53 | -6.55005 | -72.77779 | 35918 ft | 451 kts | 350° |
| 2026-04-20 16:54 | -6.48834 | -72.79001 | 35917 ft | 450 kts | 350° |
| 2026-04-20 16:54 | -6.42677 | -72.80220 | 35919 ft | 450 kts | 351° |
| 2026-04-20 16:55 | -6.36508 | -72.81441 | 35917 ft | 451 kts | 351° |
| 2026-04-20 16:55 | -6.30340 | -72.82659 | 35918 ft | 451 kts | 350° |
| 2026-04-20 16:56 | -6.24158 | -72.83881 | 35920 ft | 451 kts | 351° |
| 2026-04-20 16:56 | -6.18011 | -72.85096 | 35921 ft | 451 kts | 350° |
| 2026-04-20 16:57 | -6.11844 | -72.86315 | 35919 ft | 450 kts | 351° |
| 2026-04-20 16:57 | -6.05669 | -72.87535 | 35916 ft | 450 kts | 350° |
| 2026-04-20 16:58 | -5.99499 | -72.88753 | 35914 ft | 450 kts | 350° |
| 2026-04-20 16:58 | -5.93315 | -72.89975 | 35914 ft | 451 kts | 351° |
| 2026-04-20 16:59 | -5.87172 | -72.91186 | 35909 ft | 451 kts | 350° |
| 2026-04-20 16:59 | -5.80993 | -72.92406 | 35916 ft | 451 kts | 351° |
| 2026-04-20 17:00 | -5.71709 | -72.94238 | 35922 ft | 451 kts | 351° |
| 2026-04-20 17:01 | -5.65555 | -72.95453 | 35922 ft | 451 kts | 351° |
| 2026-04-20 17:01 | -5.59351 | -72.96671 | 35921 ft | 452 kts | 351° |
| 2026-04-20 17:02 | -5.53163 | -72.97880 | 35921 ft | 453 kts | 351° |
| 2026-04-20 17:02 | -5.46957 | -72.99089 | 35920 ft | 453 kts | 351° |
| 2026-04-20 17:03 | -5.40781 | -73.00293 | 35919 ft | 453 kts | 351° |
| 2026-04-20 17:03 | -5.34568 | -73.01506 | 35919 ft | 453 kts | 351° |
| 2026-04-20 17:04 | -5.28352 | -73.02720 | 35919 ft | 453 kts | 351° |
| 2026-04-20 17:04 | -5.22164 | -73.03928 | 35918 ft | 454 kts | 351° |
| 2026-04-20 17:05 | -5.15951 | -73.05141 | 35919 ft | 454 kts | 351° |
| 2026-04-20 17:05 | -5.09720 | -73.06356 | 35919 ft | 455 kts | 351° |
| 2026-04-20 17:06 | -5.03483 | -73.07571 | 35919 ft | 455 kts | 351° |
| 2026-04-20 17:06 | -4.97281 | -73.08779 | 35917 ft | 453 kts | 351° |
| 2026-04-20 17:07 | -4.91051 | -73.09995 | 35917 ft | 454 kts | 351° |
| 2026-04-20 17:07 | -4.84847 | -73.11204 | 35918 ft | 454 kts | 351° |
| 2026-04-20 17:08 | -4.78579 | -73.12425 | 35909 ft | 456 kts | 351° |
| 2026-04-20 17:08 | -4.72368 | -73.13634 | 35902 ft | 456 kts | 351° |
| 2026-04-20 17:09 | -4.66079 | -73.14857 | 35900 ft | 457 kts | 351° |
| 2026-04-20 17:09 | -4.59848 | -73.16071 | 35900 ft | 456 kts | 351° |
| 2026-04-20 17:10 | -4.53614 | -73.17286 | 35902 ft | 456 kts | 351° |
| 2026-04-20 17:10 | -4.47388 | -73.18500 | 35902 ft | 456 kts | 351° |
| 2026-04-20 17:11 | -4.41110 | -73.19724 | 35901 ft | 456 kts | 351° |
| 2026-04-20 17:11 | -4.34863 | -73.20940 | 35903 ft | 457 kts | 351° |
| 2026-04-20 17:12 | -4.28613 | -73.22156 | 35901 ft | 457 kts | 351° |
| 2026-04-20 17:12 | -4.22339 | -73.23377 | 35900 ft | 457 kts | 351° |
| 2026-04-20 17:13 | -4.16080 | -73.24594 | 35900 ft | 458 kts | 351° |
| 2026-04-20 17:13 | -4.09806 | -73.25815 | 35903 ft | 458 kts | 351° |
| 2026-04-20 17:14 | -4.03550 | -73.27032 | 35909 ft | 458 kts | 351° |
| 2026-04-20 17:14 | -3.97255 | -73.28256 | 35910 ft | 458 kts | 351° |
| 2026-04-20 17:15 | -3.90978 | -73.29476 | 35917 ft | 459 kts | 351° |
| 2026-04-20 17:15 | -3.84707 | -73.30695 | 35918 ft | 458 kts | 351° |
| 2026-04-20 17:16 | -3.78450 | -73.32124 | 35920 ft | 460 kts | 345° |
| 2026-04-20 17:16 | -3.72521 | -73.34153 | 35921 ft | 459 kts | 341° |
| 2026-04-20 17:17 | -3.66564 | -73.36449 | 35919 ft | 460 kts | 340° |
| 2026-04-20 17:17 | -3.60564 | -73.38797 | 35915 ft | 461 kts | 340° |
| 2026-04-20 17:18 | -3.54602 | -73.41107 | 35911 ft | 461 kts | 340° |
| 2026-04-20 17:18 | -3.48601 | -73.43411 | 35907 ft | 461 kts | 340° |
| 2026-04-20 17:19 | -3.42581 | -73.45713 | 35900 ft | 461 kts | 341° |
| 2026-04-20 17:19 | -3.36561 | -73.48010 | 35901 ft | 461 kts | 341° |
| 2026-04-20 17:20 | -3.30601 | -73.50281 | 35902 ft | 460 kts | 341° |
| 2026-04-20 17:20 | -3.24699 | -73.52528 | 35904 ft | 460 kts | 341° |
| 2026-04-20 17:21 | -3.18726 | -73.54802 | 35903 ft | 460 kts | 341° |
| 2026-04-20 17:21 | -3.12719 | -73.57089 | 35906 ft | 461 kts | 341° |
| 2026-04-20 17:22 | -3.06705 | -73.59379 | 35902 ft | 461 kts | 341° |
| 2026-04-20 17:22 | -3.00705 | -73.61662 | 35897 ft | 461 kts | 341° |
| 2026-04-20 17:23 | -2.94695 | -73.63951 | 35897 ft | 461 kts | 341° |
| 2026-04-20 17:23 | -2.88698 | -73.66234 | 35898 ft | 460 kts | 341° |
| 2026-04-20 17:24 | -2.82701 | -73.68516 | 35896 ft | 461 kts | 340° |
| 2026-04-20 17:24 | -2.76663 | -73.70812 | 35889 ft | 462 kts | 341° |
| 2026-04-20 17:25 | -2.70665 | -73.73096 | 35890 ft | 461 kts | 340° |
| 2026-04-20 17:25 | -2.64652 | -73.75382 | 35892 ft | 461 kts | 340° |
| 2026-04-20 17:26 | -2.58669 | -73.77658 | 35891 ft | 462 kts | 340° |
| 2026-04-20 17:26 | -2.52636 | -73.79951 | 35894 ft | 462 kts | 340° |
| 2026-04-20 17:27 | -2.46635 | -73.82235 | 35903 ft | 461 kts | 340° |
| 2026-04-20 17:27 | -2.40609 | -73.84527 | 35913 ft | 461 kts | 340° |
| 2026-04-20 17:28 | -2.34611 | -73.86807 | 35914 ft | 461 kts | 340° |
| 2026-04-20 17:28 | -2.28602 | -73.89092 | 35916 ft | 461 kts | 340° |
| 2026-04-20 17:29 | -2.22571 | -73.91385 | 35917 ft | 461 kts | 340° |
| 2026-04-20 17:29 | -2.16594 | -73.93655 | 35920 ft | 459 kts | 340° |
| 2026-04-20 17:30 | -2.10595 | -73.95935 | 35919 ft | 459 kts | 340° |
| 2026-04-20 17:30 | -2.04610 | -73.98212 | 35921 ft | 459 kts | 339° |
| 2026-04-20 17:31 | -1.98662 | -74.00482 | 35913 ft | 460 kts | 339° |
| 2026-04-20 17:31 | -1.92715 | -74.02945 | 35903 ft | 461 kts | 337° |
| 2026-04-20 17:32 | -1.86828 | -74.05493 | 35901 ft | 460 kts | 336° |
| 2026-04-20 17:32 | -1.80943 | -74.08043 | 35900 ft | 460 kts | 337° |
| 2026-04-20 17:33 | -1.75007 | -74.10596 | 35898 ft | 461 kts | 337° |
| 2026-04-20 17:33 | -1.69117 | -74.13116 | 35900 ft | 460 kts | 337° |
| 2026-04-20 17:34 | -1.63218 | -74.15633 | 35895 ft | 460 kts | 337° |
| 2026-04-20 17:34 | -1.57320 | -74.18146 | 35896 ft | 462 kts | 337° |
| 2026-04-20 17:35 | -1.51423 | -74.20660 | 35891 ft | 461 kts | 337° |
| 2026-04-20 17:35 | -1.45502 | -74.23183 | 35892 ft | 461 kts | 337° |
| 2026-04-20 17:36 | -1.39592 | -74.25698 | 35889 ft | 462 kts | 337° |
| 2026-04-20 17:36 | -1.33671 | -74.28219 | 35886 ft | 462 kts | 337° |
| 2026-04-20 17:37 | -1.27724 | -74.30750 | 35884 ft | 461 kts | 337° |
| 2026-04-20 17:37 | -1.21814 | -74.33266 | 35891 ft | 462 kts | 336° |
| 2026-04-20 17:38 | -1.15915 | -74.35779 | 35884 ft | 460 kts | 336° |
| 2026-04-20 17:38 | -1.09997 | -74.38299 | 35886 ft | 460 kts | 336° |
| 2026-04-20 17:39 | -1.04090 | -74.40813 | 35883 ft | 461 kts | 336° |
| 2026-04-20 17:39 | -0.98172 | -74.43333 | 35884 ft | 461 kts | 336° |
| 2026-04-20 17:40 | -0.92280 | -74.45842 | 35884 ft | 461 kts | 336° |
| 2026-04-20 17:40 | -0.86352 | -74.48366 | 35885 ft | 461 kts | 336° |
| 2026-04-20 17:41 | -0.80447 | -74.50879 | 35885 ft | 461 kts | 336° |
| 2026-04-20 17:41 | -0.74538 | -74.53394 | 35887 ft | 461 kts | 336° |
| 2026-04-20 17:42 | -0.68633 | -74.55908 | 35889 ft | 460 kts | 336° |
| 2026-04-20 17:42 | -0.62705 | -74.58432 | 35887 ft | 461 kts | 336° |
| 2026-04-20 17:43 | -0.56814 | -74.60939 | 35888 ft | 461 kts | 336° |
| 2026-04-20 17:43 | -0.50888 | -74.63460 | 35890 ft | 461 kts | 336° |
| 2026-04-20 17:44 | -0.44995 | -74.65970 | 35890 ft | 461 kts | 336° |
| 2026-04-20 17:44 | -0.39077 | -74.68487 | 35889 ft | 460 kts | 336° |
| 2026-04-20 17:45 | -0.33185 | -74.70995 | 35890 ft | 461 kts | 336° |
| 2026-04-20 17:45 | -0.27275 | -74.73512 | 35890 ft | 460 kts | 336° |
| 2026-04-20 17:46 | -0.21350 | -74.76035 | 35889 ft | 461 kts | 336° |
| 2026-04-20 17:46 | -0.15383 | -74.78375 | 35891 ft | 462 kts | 341° |
| 2026-04-20 17:47 | -0.09182 | -74.80223 | 35889 ft | 462 kts | 345° |
| 2026-04-20 17:47 | -0.02965 | -74.81910 | 35887 ft | 462 kts | 345° |
| 2026-04-20 17:48 | 0.03182 | -74.83580 | 35889 ft | 462 kts | 345° |
| 2026-04-20 17:48 | 0.09352 | -74.85286 | 35889 ft | 461 kts | 344° |
| 2026-04-20 17:49 | 0.15537 | -74.87020 | 35889 ft | 462 kts | 344° |
| 2026-04-20 17:49 | 0.21772 | -74.88782 | 35889 ft | 463 kts | 344° |
| 2026-04-20 17:50 | 0.27943 | -74.90530 | 35889 ft | 463 kts | 344° |
| 2026-04-20 17:50 | 0.34177 | -74.92300 | 35880 ft | 464 kts | 344° |
| 2026-04-20 17:51 | 0.40389 | -74.94064 | 35895 ft | 463 kts | 344° |
| 2026-04-20 17:51 | 0.46638 | -74.95840 | 35899 ft | 464 kts | 344° |
| 2026-04-20 17:52 | 0.52847 | -74.97606 | 35902 ft | 463 kts | 344° |
| 2026-04-20 17:52 | 0.59054 | -74.99367 | 35907 ft | 464 kts | 344° |
| 2026-04-20 17:53 | 0.65270 | -75.01131 | 35909 ft | 464 kts | 344° |
| 2026-04-20 17:53 | 0.71486 | -75.02895 | 35909 ft | 463 kts | 344° |
| 2026-04-20 17:54 | 0.77723 | -75.04665 | 35902 ft | 464 kts | 344° |
| 2026-04-20 17:54 | 0.83953 | -75.06433 | 35910 ft | 466 kts | 344° |
| 2026-04-20 17:55 | 0.90203 | -75.08208 | 35912 ft | 465 kts | 344° |
| 2026-04-20 17:55 | 0.96420 | -75.09974 | 35916 ft | 465 kts | 344° |
| 2026-04-20 17:56 | 1.02668 | -75.11748 | 35916 ft | 466 kts | 344° |
| 2026-04-20 17:56 | 1.08928 | -75.13525 | 35925 ft | 464 kts | 344° |
| 2026-04-20 17:57 | 1.15162 | -75.15297 | 35927 ft | 466 kts | 344° |
| 2026-04-20 17:57 | 1.21386 | -75.17065 | 35936 ft | 466 kts | 344° |
| 2026-04-20 17:58 | 1.27667 | -75.18848 | 35940 ft | 465 kts | 344° |
| 2026-04-20 17:58 | 1.33883 | -75.20613 | 35945 ft | 464 kts | 344° |
| 2026-04-20 17:59 | 1.40089 | -75.22375 | 35946 ft | 464 kts | 344° |
| 2026-04-20 17:59 | 1.46330 | -75.24149 | 35951 ft | 465 kts | 344° |
| 2026-04-20 18:00 | 1.52540 | -75.25914 | 35964 ft | 464 kts | 344° |
| 2026-04-20 18:00 | 1.58779 | -75.27687 | 35967 ft | 464 kts | 344° |
| 2026-04-20 18:01 | 1.64992 | -75.29431 | 35969 ft | 465 kts | 345° |
| 2026-04-20 18:01 | 1.71381 | -75.30661 | 35976 ft | 466 kts | 353° |
| 2026-04-20 18:02 | 1.77812 | -75.31296 | 35984 ft | 463 kts | 355° |
| 2026-04-20 18:02 | 1.81054 | -75.31549 | 35759 ft | 466 kts | 356° |
| 2026-04-20 18:02 | 1.84272 | -75.31795 | 35466 ft | 465 kts | 356° |
| 2026-04-20 18:02 | 1.87524 | -75.32048 | 35168 ft | 463 kts | 356° |
| 2026-04-20 18:03 | 1.90717 | -75.32304 | 35016 ft | 462 kts | 355° |
| 2026-04-20 18:03 | 1.97177 | -75.32841 | 35055 ft | 467 kts | 355° |
| 2026-04-20 18:04 | 2.03690 | -75.33404 | 35084 ft | 468 kts | 355° |
| 2026-04-20 18:04 | 2.10171 | -75.33974 | 35136 ft | 466 kts | 355° |
| 2026-04-20 18:05 | 2.19914 | -75.34836 | 35197 ft | 467 kts | 355° |
| 2026-04-20 18:05 | 2.26373 | -75.35409 | 35230 ft | 465 kts | 355° |
| 2026-04-20 18:06 | 2.32851 | -75.35984 | 35252 ft | 465 kts | 355° |
| 2026-04-20 18:06 | 2.39283 | -75.36556 | 35261 ft | 465 kts | 355° |
| 2026-04-20 18:07 | 2.45770 | -75.37131 | 35261 ft | 465 kts | 355° |
| 2026-04-20 18:07 | 2.52229 | -75.37702 | 35250 ft | 465 kts | 355° |
| 2026-04-20 18:08 | 2.58704 | -75.38276 | 35249 ft | 466 kts | 355° |
| 2026-04-20 18:08 | 2.65169 | -75.38851 | 35200 ft | 464 kts | 355° |
| 2026-04-20 18:09 | 2.71594 | -75.39423 | 35194 ft | 464 kts | 355° |
| 2026-04-20 18:09 | 2.78028 | -75.39993 | 35176 ft | 463 kts | 355° |
| 2026-04-20 18:10 | 2.84501 | -75.40568 | 35169 ft | 464 kts | 355° |
| 2026-04-20 18:10 | 2.89871 | -75.41043 | 35157 ft | 464 kts | 355° |
| 2026-04-20 18:11 | 2.97391 | -75.41709 | 35174 ft | 464 kts | 355° |
| 2026-04-20 18:11 | 3.03850 | -75.42281 | 35193 ft | 464 kts | 355° |
| 2026-04-20 18:12 | 3.10313 | -75.42855 | 35213 ft | 465 kts | 355° |
| 2026-04-20 18:12 | 3.16739 | -75.43427 | 35230 ft | 465 kts | 355° |
| 2026-04-20 18:13 | 3.23198 | -75.44003 | 35202 ft | 464 kts | 355° |
| 2026-04-20 18:13 | 3.29625 | -75.44574 | 35208 ft | 463 kts | 355° |
| 2026-04-20 18:14 | 3.36098 | -75.45148 | 35207 ft | 463 kts | 355° |
| 2026-04-20 18:14 | 3.42485 | -75.45714 | 35209 ft | 463 kts | 355° |
| 2026-04-20 18:15 | 3.48936 | -75.46287 | 35172 ft | 464 kts | 355° |
| 2026-04-20 18:15 | 3.55374 | -75.46859 | 35168 ft | 464 kts | 355° |
| 2026-04-20 18:16 | 3.61830 | -75.47433 | 35144 ft | 463 kts | 355° |
| 2026-04-20 18:16 | 3.68283 | -75.48006 | 35151 ft | 464 kts | 355° |
| 2026-04-20 18:17 | 3.74715 | -75.48579 | 35146 ft | 464 kts | 355° |
| 2026-04-20 18:17 | 3.81149 | -75.49152 | 35202 ft | 462 kts | 355° |
| 2026-04-20 18:18 | 3.87588 | -75.49622 | 35254 ft | 462 kts | 360° |
| 2026-04-20 18:18 | 3.94041 | -75.49478 | 35318 ft | 461 kts | 4° |
| 2026-04-20 18:19 | 4.00462 | -75.49064 | 35283 ft | 461 kts | 5° |
| 2026-04-20 18:19 | 4.06876 | -75.48623 | 35331 ft | 461 kts | 5° |
| 2026-04-20 18:20 | 4.13314 | -75.48206 | 35343 ft | 462 kts | 4° |
| 2026-04-20 18:20 | 4.19739 | -75.47813 | 35373 ft | 462 kts | 4° |
| 2026-04-20 18:21 | 4.26157 | -75.47437 | 35417 ft | 461 kts | 4° |
| 2026-04-20 18:21 | 4.32582 | -75.47067 | 35386 ft | 461 kts | 4° |
| 2026-04-20 18:22 | 4.39000 | -75.46701 | 35359 ft | 460 kts | 4° |
| 2026-04-20 18:22 | 4.45451 | -75.46333 | 35326 ft | 461 kts | 4° |
| 2026-04-20 18:23 | 4.51834 | -75.45913 | 35346 ft | 460 kts | 5° |
| 2026-04-20 18:23 | 4.58249 | -75.45433 | 35365 ft | 462 kts | 5° |
| 2026-04-20 18:24 | 4.64659 | -75.44945 | 35394 ft | 461 kts | 5° |
| 2026-04-20 18:24 | 4.71063 | -75.44463 | 35401 ft | 462 kts | 5° |
| 2026-04-20 18:25 | 4.77478 | -75.43989 | 35070 ft | 463 kts | 5° |
| 2026-04-20 18:25 | 4.80734 | -75.43748 | 34095 ft | 466 kts | 5° |
| 2026-04-20 18:25 | 4.83913 | -75.43515 | 33860 ft | 455 kts | 5° |
| 2026-04-20 18:26 | 4.87113 | -75.43280 | 33238 ft | 453 kts | 5° |
| 2026-04-20 18:26 | 4.90211 | -75.43052 | 32739 ft | 448 kts | 5° |
| 2026-04-20 18:26 | 4.93350 | -75.42821 | 32183 ft | 446 kts | 5° |
| 2026-04-20 18:26 | 4.96407 | -75.42595 | 31679 ft | 442 kts | 5° |
| 2026-04-20 18:27 | 4.98199 | -75.42463 | 31362 ft | 441 kts | 5° |
| 2026-04-20 18:27 | 4.98582 | -75.42435 | 31289 ft | 441 kts | 5° |
| 2026-04-20 18:28 | 5.01659 | -75.42207 | 30581 ft | 438 kts | 5° |
| 2026-04-20 18:28 | 5.04656 | -75.41986 | 29789 ft | 432 kts | 5° |
| 2026-04-20 18:28 | 5.07648 | -75.41766 | 29035 ft | 426 kts | 5° |
| 2026-04-20 18:28 | 5.10605 | -75.41549 | 28217 ft | 422 kts | 5° |
| 2026-04-20 18:29 | 5.13526 | -75.41334 | 27424 ft | 417 kts | 5° |
| 2026-04-20 18:29 | 5.16370 | -75.41124 | 26686 ft | 412 kts | 5° |
| 2026-04-20 18:29 | 5.19238 | -75.40912 | 25920 ft | 406 kts | 5° |
| 2026-04-20 18:29 | 5.22032 | -75.40706 | 25170 ft | 401 kts | 5° |
| 2026-04-20 18:30 | 5.24789 | -75.40504 | 24405 ft | 396 kts | 5° |
| 2026-04-20 18:30 | 5.27507 | -75.40305 | 23653 ft | 392 kts | 4° |
| 2026-04-20 18:30 | 5.30224 | -75.40105 | 22942 ft | 386 kts | 4° |
| 2026-04-20 18:30 | 5.32895 | -75.39912 | 22333 ft | 378 kts | 4° |
| 2026-04-20 18:31 | 5.35482 | -75.39815 | 22030 ft | 362 kts | 360° |
| 2026-04-20 18:31 | 5.37944 | -75.39880 | 21709 ft | 349 kts | 357° |
| 2026-04-20 18:31 | 5.40341 | -75.40022 | 21158 ft | 345 kts | 356° |
| 2026-04-20 18:31 | 5.42745 | -75.40190 | 20583 ft | 342 kts | 356° |
| 2026-04-20 18:32 | 5.45099 | -75.40354 | 20036 ft | 337 kts | 356° |
| 2026-04-20 18:32 | 5.47417 | -75.40507 | 19493 ft | 333 kts | 356° |
| 2026-04-20 18:32 | 5.49740 | -75.40651 | 18923 ft | 329 kts | 357° |
| 2026-04-20 18:32 | 5.52004 | -75.40787 | 18374 ft | 326 kts | 357° |
| 2026-04-20 18:33 | 5.54267 | -75.40917 | 17836 ft | 322 kts | 357° |
| 2026-04-20 18:33 | 5.56492 | -75.41045 | 17287 ft | 318 kts | 357° |
| 2026-04-20 18:33 | 5.58678 | -75.41166 | 16731 ft | 316 kts | 357° |
| 2026-04-20 18:33 | 5.60876 | -75.41290 | 16163 ft | 313 kts | 357° |
| 2026-04-20 18:34 | 5.63021 | -75.41409 | 15618 ft | 310 kts | 356° |
| 2026-04-20 18:34 | 5.65180 | -75.41529 | 15062 ft | 308 kts | 356° |
| 2026-04-20 18:34 | 5.67327 | -75.41649 | 14548 ft | 303 kts | 356° |
| 2026-04-20 18:34 | 5.69383 | -75.41763 | 14317 ft | 289 kts | 356° |
| 2026-04-20 18:35 | 5.71358 | -75.41873 | 14210 ft | 276 kts | 356° |
| 2026-04-20 18:35 | 5.73247 | -75.41978 | 14076 ft | 266 kts | 356° |
| 2026-04-20 18:35 | 5.75079 | -75.42079 | 13871 ft | 262 kts | 356° |
| 2026-04-20 18:35 | 5.76920 | -75.42181 | 13683 ft | 262 kts | 356° |
| 2026-04-20 18:36 | 5.78749 | -75.42252 | 13280 ft | 268 kts | 358° |
| 2026-04-20 18:36 | 5.80641 | -75.42255 | 12814 ft | 267 kts | 359° |
| 2026-04-20 18:36 | 5.82463 | -75.42235 | 12463 ft | 253 kts | 359° |
| 2026-04-20 18:36 | 5.84164 | -75.42218 | 12312 ft | 236 kts | 359° |
| 2026-04-20 18:37 | 5.85765 | -75.42213 | 12279 ft | 222 kts | 359° |
| 2026-04-20 18:37 | 5.87233 | -75.42214 | 12206 ft | 204 kts | 360° |
| 2026-04-20 18:37 | 5.88632 | -75.42165 | 11991 ft | 193 kts | 1° |
| 2026-04-20 18:37 | 5.89916 | -75.42130 | 11767 ft | 182 kts | 359° |
| 2026-04-20 18:38 | 5.91169 | -75.42136 | 11437 ft | 178 kts | 358° |
| 2026-04-20 18:38 | 5.92409 | -75.42147 | 11232 ft | 177 kts | 358° |
| 2026-04-20 18:38 | 5.93654 | -75.42156 | 10995 ft | 179 kts | 358° |
| 2026-04-20 18:38 | 5.94891 | -75.42165 | 10713 ft | 175 kts | 358° |
| 2026-04-20 18:39 | 5.96111 | -75.42171 | 10507 ft | 175 kts | 358° |
| 2026-04-20 18:39 | 5.97333 | -75.42172 | 10226 ft | 176 kts | 359° |
| 2026-04-20 18:39 | 5.98563 | -75.42158 | 9923 ft | 176 kts | 359° |
| 2026-04-20 18:39 | 5.99784 | -75.42153 | 9696 ft | 171 kts | 358° |
| 2026-04-20 18:40 | 6.00955 | -75.42222 | 9496 ft | 170 kts | 354° |
| 2026-04-20 18:40 | 6.02161 | -75.42252 | 9259 ft | 172 kts | 359° |
| 2026-04-20 18:40 | 6.03357 | -75.42224 | 9081 ft | 172 kts | 0° |
| 2026-04-20 18:40 | 6.04541 | -75.42190 | 8952 ft | 168 kts | 359° |
| 2026-04-20 18:41 | 6.05720 | -75.42200 | 8810 ft | 169 kts | 357° |
| 2026-04-20 18:41 | 6.06901 | -75.42228 | 8555 ft | 170 kts | 356° |
| 2026-04-20 18:41 | 6.08092 | -75.42268 | 8293 ft | 169 kts | 359° |
| 2026-04-20 18:41 | 6.09267 | -75.42271 | 7999 ft | 168 kts | 1° |
| 2026-04-20 18:42 | 6.10415 | -75.42265 | 7779 ft | 163 kts | 358° |
| 2026-04-20 18:42 | 6.11556 | -75.42291 | 7553 ft | 161 kts | 359° |
| 2026-04-20 18:42 | 6.12681 | -75.42292 | 7377 ft | 159 kts | 0° |
| 2026-04-20 18:42 | 6.13795 | -75.42303 | 7207 ft | 163 kts | 360° |
| 2026-04-20 18:43 | 6.14930 | -75.42303 | 6985 ft | 161 kts | 358° |
| 2026-04-20 18:43 | 6.15957 | -75.42306 | 6964 ft | 119 kts | 1° |
| 2026-04-20 18:43 | 6.16540 | -75.42311 | 6975 ft | 48 kts | 358° |
| 2026-04-20 18:43 | 6.16705 | -75.42313 | 6979 ft | 10 kts | 360° |
| 2026-04-20 18:44 | 6.16742 | -75.42313 | 6980 ft | 0 kts | 0° |
| 2026-04-20 18:44 | 6.16754 | -75.42313 | 6980 ft | 4 kts | 0° |
| 2026-04-20 18:44 | 6.16781 | -75.42313 | 6981 ft | 3 kts | 0° |
| 2026-04-20 18:45 | 6.16830 | -75.42316 | 6982 ft | 10 kts | 351° |
| 2026-04-20 18:45 | 6.16862 | -75.42379 | 6982 ft | 6 kts | 270° |
| 2026-04-20 18:45 | 6.16862 | -75.42381 | 6982 ft | 0 kts | 270° |
| 2026-04-20 18:46 | 6.16862 | -75.42401 | 6983 ft | 7 kts | 270° |
| 2026-04-20 18:46 | 6.16871 | -75.42484 | 6984 ft | 14 kts | 303° |
| 2026-04-20 18:46 | 6.16955 | -75.42537 | 6986 ft | 14 kts | 329° |
| 2026-04-20 18:47 | 6.17045 | -75.42589 | 6988 ft | 15 kts | 330° |
| 2026-04-20 18:47 | 6.17094 | -75.42655 | 6990 ft | 10 kts | 274° |
| 2026-04-20 18:47 | 6.17096 | -75.42673 | 6990 ft | 0 kts | 277° |